sensor_id;sensor_type;location;lat;lon;timestamp;P1;durP1;ratioP1;P2;durP2;ratioP2
64235;SDS011;50564;47.402;9.740;2024-01-30T00:03:34;23.95;;;13.75;;
64235;SDS011;50564;47.402;9.740;2024-01-30T00:08:35;21.63;;;13.32;;
64235;SDS011;50564;47.402;9.740;2024-01-30T00:13:35;30.70;;;14.35;;
64235;SDS011;50564;47.402;9.740;2024-01-30T00:18:36;23.30;;;13.05;;
64235;SDS011;50564;47.402;9.740;2024-01-30T00:23:37;20.50;;;14.07;;
64235;SDS011;50564;47.402;9.740;2024-01-30T00:28:38;27.30;;;16.90;;
64235;SDS011;50564;47.402;9.740;2024-01-30T00:33:39;21.05;;;12.85;;
64235;SDS011;50564;47.402;9.740;2024-01-30T00:38:40;16.50;;;12.00;;
64235;SDS011;50564;47.402;9.740;2024-01-30T00:43:41;14.82;;;11.02;;
64235;SDS011;50564;47.402;9.740;2024-01-30T00:48:41;13.80;;;10.07;;
64235;SDS011;50564;47.402;9.740;2024-01-30T00:53:42;16.58;;;10.77;;
64235;SDS011;50564;47.402;9.740;2024-01-30T00:58:42;17.35;;;11.10;;
64235;SDS011;50564;47.402;9.740;2024-01-30T01:03:43;20.88;;;11.38;;
64235;SDS011;50564;47.402;9.740;2024-01-30T01:08:44;16.50;;;11.05;;
64235;SDS011;50564;47.402;9.740;2024-01-30T01:13:44;21.20;;;10.18;;
64235;SDS011;50564;47.402;9.740;2024-01-30T01:18:45;24.42;;;11.38;;
64235;SDS011;50564;47.402;9.740;2024-01-30T01:23:46;14.52;;;9.15;;
64235;SDS011;50564;47.402;9.740;2024-01-30T01:28:46;16.70;;;11.00;;
64235;SDS011;50564;47.402;9.740;2024-01-30T01:33:47;18.17;;;10.63;;
64235;SDS011;50564;47.402;9.740;2024-01-30T01:38:47;30.65;;;11.38;;
64235;SDS011;50564;47.402;9.740;2024-01-30T01:43:48;19.05;;;11.55;;
64235;SDS011;50564;47.402;9.740;2024-01-30T01:48:49;24.58;;;10.35;;
64235;SDS011;50564;47.402;9.740;2024-01-30T01:53:50;25.23;;;11.77;;
64235;SDS011;50564;47.402;9.740;2024-01-30T01:58:51;19.35;;;10.70;;
64235;SDS011;50564;47.402;9.740;2024-01-30T02:03:55;14.32;;;9.30;;
64235;SDS011;50564;47.402;9.740;2024-01-30T02:08:56;15.23;;;9.50;;
64235;SDS011;50564;47.402;9.740;2024-01-30T02:13:56;16.73;;;10.55;;
64235;SDS011;50564;47.402;9.740;2024-01-30T02:19:02;26.15;;;12.10;;
64235;SDS011;50564;47.402;9.740;2024-01-30T02:24:02;23.38;;;10.80;;
64235;SDS011;50564;47.402;9.740;2024-01-30T02:29:04;15.55;;;10.77;;
64235;SDS011;50564;47.402;9.740;2024-01-30T02:34:04;26.95;;;10.43;;
64235;SDS011;50564;47.402;9.740;2024-01-30T02:39:05;18.77;;;10.63;;
64235;SDS011;50564;47.402;9.740;2024-01-30T02:44:05;16.77;;;10.60;;
64235;SDS011;50564;47.402;9.740;2024-01-30T02:49:06;17.33;;;9.95;;
64235;SDS011;50564;47.402;9.740;2024-01-30T02:54:07;30.88;;;13.15;;
64235;SDS011;50564;47.402;9.740;2024-01-30T02:59:07;19.77;;;12.57;;
64235;SDS011;50564;47.402;9.740;2024-01-30T03:04:08;16.67;;;10.77;;
64235;SDS011;50564;47.402;9.740;2024-01-30T03:09:08;18.58;;;10.95;;
64235;SDS011;50564;47.402;9.740;2024-01-30T03:14:10;16.88;;;11.15;;
64235;SDS011;50564;47.402;9.740;2024-01-30T03:19:11;16.88;;;11.50;;
64235;SDS011;50564;47.402;9.740;2024-01-30T03:24:11;20.45;;;12.32;;
64235;SDS011;50564;47.402;9.740;2024-01-30T03:29:12;19.67;;;10.13;;
64235;SDS011;50564;47.402;9.740;2024-01-30T03:34:13;66.45;;;12.52;;
64235;SDS011;50564;47.402;9.740;2024-01-30T03:39:14;18.50;;;9.73;;
64235;SDS011;50564;47.402;9.740;2024-01-30T03:44:15;15.98;;;10.45;;
64235;SDS011;50564;47.402;9.740;2024-01-30T03:49:16;16.90;;;11.25;;
64235;SDS011;50564;47.402;9.740;2024-01-30T03:54:16;17.77;;;12.10;;
64235;SDS011;50564;47.402;9.740;2024-01-30T03:59:17;18.05;;;11.68;;
64235;SDS011;50564;47.402;9.740;2024-01-30T04:04:22;20.83;;;11.63;;
64235;SDS011;50564;47.402;9.740;2024-01-30T04:09:23;16.27;;;10.65;;
64235;SDS011;50564;47.402;9.740;2024-01-30T04:14:24;18.17;;;11.45;;
64235;SDS011;50564;47.402;9.740;2024-01-30T04:19:24;21.80;;;12.25;;
64235;SDS011;50564;47.402;9.740;2024-01-30T04:24:25;25.40;;;13.25;;
64235;SDS011;50564;47.402;9.740;2024-01-30T04:29:26;21.95;;;13.10;;
64235;SDS011;50564;47.402;9.740;2024-01-30T04:34:26;27.05;;;12.95;;
64235;SDS011;50564;47.402;9.740;2024-01-30T04:39:27;24.58;;;14.07;;
64235;SDS011;50564;47.402;9.740;2024-01-30T04:44:27;22.23;;;13.77;;
64235;SDS011;50564;47.402;9.740;2024-01-30T04:49:28;28.40;;;13.95;;
64235;SDS011;50564;47.402;9.740;2024-01-30T04:54:29;30.00;;;14.48;;
64235;SDS011;50564;47.402;9.740;2024-01-30T04:59:30;23.10;;;13.10;;
64235;SDS011;50564;47.402;9.740;2024-01-30T05:04:30;25.00;;;14.25;;
64235;SDS011;50564;47.402;9.740;2024-01-30T05:09:31;23.55;;;14.23;;
64235;SDS011;50564;47.402;9.740;2024-01-30T05:14:31;25.05;;;13.57;;
64235;SDS011;50564;47.402;9.740;2024-01-30T05:19:32;19.48;;;12.15;;
64235;SDS011;50564;47.402;9.740;2024-01-30T05:24:33;31.85;;;15.40;;
64235;SDS011;50564;47.402;9.740;2024-01-30T05:29:34;25.90;;;15.18;;
64235;SDS011;50564;47.402;9.740;2024-01-30T05:34:35;25.20;;;15.48;;
64235;SDS011;50564;47.402;9.740;2024-01-30T05:39:35;31.02;;;14.48;;
64235;SDS011;50564;47.402;9.740;2024-01-30T05:44:36;22.83;;;13.60;;
64235;SDS011;50564;47.402;9.740;2024-01-30T05:49:37;19.67;;;12.60;;
64235;SDS011;50564;47.402;9.740;2024-01-30T05:54:39;25.40;;;14.90;;
64235;SDS011;50564;47.402;9.740;2024-01-30T05:59:39;27.85;;;16.48;;
64235;SDS011;50564;47.402;9.740;2024-01-30T06:04:40;31.00;;;15.02;;
64235;SDS011;50564;47.402;9.740;2024-01-30T06:09:41;21.17;;;13.20;;
64235;SDS011;50564;47.402;9.740;2024-01-30T06:14:42;22.88;;;14.52;;
64235;SDS011;50564;47.402;9.740;2024-01-30T06:19:43;27.35;;;16.92;;
64235;SDS011;50564;47.402;9.740;2024-01-30T06:24:43;27.88;;;16.65;;
64235;SDS011;50564;47.402;9.740;2024-01-30T06:29:48;23.15;;;15.80;;
64235;SDS011;50564;47.402;9.740;2024-01-30T06:34:49;32.88;;;20.13;;
64235;SDS011;50564;47.402;9.740;2024-01-30T06:39:50;27.67;;;18.58;;
64235;SDS011;50564;47.402;9.740;2024-01-30T06:44:51;25.42;;;16.38;;
64235;SDS011;50564;47.402;9.740;2024-01-30T06:49:53;28.13;;;16.90;;
64235;SDS011;50564;47.402;9.740;2024-01-30T06:54:53;30.45;;;17.00;;
64235;SDS011;50564;47.402;9.740;2024-01-30T06:59:55;23.48;;;14.95;;
64235;SDS011;50564;47.402;9.740;2024-01-30T07:04:55;24.20;;;14.65;;
64235;SDS011;50564;47.402;9.740;2024-01-30T07:09:56;27.40;;;18.13;;
64235;SDS011;50564;47.402;9.740;2024-01-30T07:14:58;29.58;;;17.15;;
64235;SDS011;50564;47.402;9.740;2024-01-30T07:19:59;34.40;;;20.30;;
64235;SDS011;50564;47.402;9.740;2024-01-30T07:25:00;29.08;;;19.33;;
64235;SDS011;50564;47.402;9.740;2024-01-30T07:30:01;24.90;;;15.63;;
64235;SDS011;50564;47.402;9.740;2024-01-30T07:35:02;34.63;;;19.40;;
64235;SDS011;50564;47.402;9.740;2024-01-30T07:40:04;24.92;;;15.82;;
64235;SDS011;50564;47.402;9.740;2024-01-30T07:45:06;30.13;;;16.85;;
64235;SDS011;50564;47.402;9.740;2024-01-30T07:50:07;38.10;;;25.45;;
64235;SDS011;50564;47.402;9.740;2024-01-30T08:00:46;28.67;;;18.83;;
64235;SDS011;50564;47.402;9.740;2024-01-30T08:05:47;40.25;;;24.83;;
64235;SDS011;50564;47.402;9.740;2024-01-30T08:10:48;38.58;;;25.70;;
64235;SDS011;50564;47.402;9.740;2024-01-30T08:15:49;31.08;;;19.83;;
64235;SDS011;50564;47.402;9.740;2024-01-30T08:20:49;31.92;;;20.27;;
64235;SDS011;50564;47.402;9.740;2024-01-30T08:25:50;23.00;;;17.80;;
64235;SDS011;50564;47.402;9.740;2024-01-30T08:30:51;24.27;;;15.68;;
64235;SDS011;50564;47.402;9.740;2024-01-30T08:35:52;22.25;;;17.42;;
64235;SDS011;50564;47.402;9.740;2024-01-30T08:40:54;27.48;;;19.85;;
64235;SDS011;50564;47.402;9.740;2024-01-30T08:45:55;26.15;;;19.45;;
64235;SDS011;50564;47.402;9.740;2024-01-30T08:50:57;31.20;;;22.38;;
64235;SDS011;50564;47.402;9.740;2024-01-30T08:55:58;24.15;;;16.45;;
64235;SDS011;50564;47.402;9.740;2024-01-30T09:00:59;19.33;;;13.52;;
64235;SDS011;50564;47.402;9.740;2024-01-30T09:06:00;26.65;;;19.67;;
64235;SDS011;50564;47.402;9.740;2024-01-30T09:11:00;31.25;;;21.33;;
64235;SDS011;50564;47.402;9.740;2024-01-30T09:16:01;30.38;;;22.92;;
64235;SDS011;50564;47.402;9.740;2024-01-30T09:21:02;36.45;;;26.45;;
64235;SDS011;50564;47.402;9.740;2024-01-30T09:26:02;33.08;;;23.00;;
64235;SDS011;50564;47.402;9.740;2024-01-30T09:31:03;27.42;;;20.75;;
64235;SDS011;50564;47.402;9.740;2024-01-30T09:36:07;26.67;;;20.80;;
64235;SDS011;50564;47.402;9.740;2024-01-30T09:41:09;35.22;;;21.88;;
64235;SDS011;50564;47.402;9.740;2024-01-30T09:46:11;26.55;;;17.55;;
64235;SDS011;50564;47.402;9.740;2024-01-30T09:51:15;20.60;;;12.90;;
64235;SDS011;50564;47.402;9.740;2024-01-30T09:56:16;16.90;;;12.93;;
64235;SDS011;50564;47.402;9.740;2024-01-30T10:01:17;18.58;;;13.38;;
64235;SDS011;50564;47.402;9.740;2024-01-30T10:06:19;24.83;;;17.40;;
64235;SDS011;50564;47.402;9.740;2024-01-30T10:11:21;27.30;;;18.85;;
64235;SDS011;50564;47.402;9.740;2024-01-30T10:16:22;19.30;;;15.07;;
64235;SDS011;50564;47.402;9.740;2024-01-30T10:21:22;19.63;;;13.88;;
64235;SDS011;50564;47.402;9.740;2024-01-30T10:26:23;16.27;;;13.18;;
64235;SDS011;50564;47.402;9.740;2024-01-30T10:31:24;19.20;;;14.10;;
64235;SDS011;50564;47.402;9.740;2024-01-30T10:36:28;17.33;;;12.93;;
64235;SDS011;50564;47.402;9.740;2024-01-30T10:41:30;18.55;;;14.98;;
64235;SDS011;50564;47.402;9.740;2024-01-30T10:46:32;18.67;;;14.10;;
64235;SDS011;50564;47.402;9.740;2024-01-30T10:51:34;33.03;;;23.05;;
64235;SDS011;50564;47.402;9.740;2024-01-30T10:56:37;27.20;;;20.30;;
64235;SDS011;50564;47.402;9.740;2024-01-30T11:01:39;24.67;;;16.33;;
64235;SDS011;50564;47.402;9.740;2024-01-30T11:06:41;19.98;;;15.20;;
64235;SDS011;50564;47.402;9.740;2024-01-30T11:11:55;19.23;;;14.68;;
64235;SDS011;50564;47.402;9.740;2024-01-30T11:17:02;19.83;;;13.55;;
64235;SDS011;50564;47.402;9.740;2024-01-30T11:22:06;16.95;;;13.18;;
64235;SDS011;50564;47.402;9.740;2024-01-30T11:27:10;19.50;;;12.77;;
64235;SDS011;50564;47.402;9.740;2024-01-30T11:32:10;22.98;;;13.00;;
64235;SDS011;50564;47.402;9.740;2024-01-30T11:37:11;17.35;;;12.00;;
64235;SDS011;50564;47.402;9.740;2024-01-30T11:42:12;18.63;;;13.18;;
64235;SDS011;50564;47.402;9.740;2024-01-30T11:47:14;15.68;;;12.02;;
64235;SDS011;50564;47.402;9.740;2024-01-30T11:52:15;14.18;;;9.88;;
64235;SDS011;50564;47.402;9.740;2024-01-30T11:57:16;14.30;;;10.68;;
64235;SDS011;50564;47.402;9.740;2024-01-30T12:02:17;15.02;;;10.15;;
64235;SDS011;50564;47.402;9.740;2024-01-30T12:07:18;14.30;;;10.20;;
64235;SDS011;50564;47.402;9.740;2024-01-30T12:12:18;15.20;;;11.35;;
64235;SDS011;50564;47.402;9.740;2024-01-30T12:17:29;16.38;;;12.68;;
64235;SDS011;50564;47.402;9.740;2024-01-30T12:22:30;16.45;;;12.68;;
64235;SDS011;50564;47.402;9.740;2024-01-30T12:27:31;16.33;;;12.23;;
64235;SDS011;50564;47.402;9.740;2024-01-30T12:32:34;14.38;;;11.00;;
64235;SDS011;50564;47.402;9.740;2024-01-30T12:37:39;16.17;;;12.13;;
64235;SDS011;50564;47.402;9.740;2024-01-30T12:42:40;14.85;;;11.57;;
64235;SDS011;50564;47.402;9.740;2024-01-30T12:47:42;15.07;;;12.35;;
64235;SDS011;50564;47.402;9.740;2024-01-30T12:52:43;13.75;;;10.95;;
64235;SDS011;50564;47.402;9.740;2024-01-30T12:57:45;18.17;;;12.73;;
64235;SDS011;50564;47.402;9.740;2024-01-30T13:02:47;15.10;;;12.18;;
64235;SDS011;50564;47.402;9.740;2024-01-30T13:07:47;22.63;;;14.25;;
64235;SDS011;50564;47.402;9.740;2024-01-30T13:12:48;17.35;;;12.98;;
64235;SDS011;50564;47.402;9.740;2024-01-30T13:17:49;17.98;;;12.70;;
64235;SDS011;50564;47.402;9.740;2024-01-30T13:22:50;21.25;;;13.07;;
64235;SDS011;50564;47.402;9.740;2024-01-30T13:27:51;18.95;;;12.68;;
64235;SDS011;50564;47.402;9.740;2024-01-30T13:32:51;16.77;;;11.45;;
64235;SDS011;50564;47.402;9.740;2024-01-30T13:37:52;17.33;;;10.95;;
64235;SDS011;50564;47.402;9.740;2024-01-30T13:42:53;14.25;;;10.93;;
64235;SDS011;50564;47.402;9.740;2024-01-30T13:47:54;13.85;;;10.30;;
64235;SDS011;50564;47.402;9.740;2024-01-30T13:52:54;18.70;;;11.45;;
64235;SDS011;50564;47.402;9.740;2024-01-30T13:57:55;13.93;;;10.65;;
64235;SDS011;50564;47.402;9.740;2024-01-30T14:02:56;15.88;;;10.95;;
64235;SDS011;50564;47.402;9.740;2024-01-30T14:07:58;19.17;;;11.70;;
64235;SDS011;50564;47.402;9.740;2024-01-30T14:13:00;15.73;;;11.70;;
64235;SDS011;50564;47.402;9.740;2024-01-30T14:18:01;16.58;;;11.65;;
64235;SDS011;50564;47.402;9.740;2024-01-30T14:23:02;16.42;;;11.10;;
64235;SDS011;50564;47.402;9.740;2024-01-30T14:28:03;18.13;;;12.18;;
64235;SDS011;50564;47.402;9.740;2024-01-30T14:33:04;16.38;;;11.60;;
64235;SDS011;50564;47.402;9.740;2024-01-30T14:38:05;18.98;;;12.73;;
64235;SDS011;50564;47.402;9.740;2024-01-30T14:43:07;13.77;;;11.18;;
64235;SDS011;50564;47.402;9.740;2024-01-30T14:48:08;15.80;;;12.13;;
64235;SDS011;50564;47.402;9.740;2024-01-30T14:53:09;17.13;;;12.95;;
64235;SDS011;50564;47.402;9.740;2024-01-30T14:58:09;17.98;;;11.85;;
64235;SDS011;50564;47.402;9.740;2024-01-30T15:03:10;21.98;;;14.10;;
64235;SDS011;50564;47.402;9.740;2024-01-30T15:08:11;19.60;;;13.50;;
64235;SDS011;50564;47.402;9.740;2024-01-30T15:13:11;18.70;;;12.93;;
64235;SDS011;50564;47.402;9.740;2024-01-30T15:18:12;19.67;;;13.98;;
64235;SDS011;50564;47.402;9.740;2024-01-30T15:23:13;21.48;;;14.13;;
64235;SDS011;50564;47.402;9.740;2024-01-30T15:28:14;17.42;;;13.00;;
64235;SDS011;50564;47.402;9.740;2024-01-30T15:33:15;18.63;;;13.77;;
64235;SDS011;50564;47.402;9.740;2024-01-30T15:38:15;22.77;;;14.40;;
64235;SDS011;50564;47.402;9.740;2024-01-30T15:43:16;21.15;;;14.18;;
64235;SDS011;50564;47.402;9.740;2024-01-30T15:48:17;20.25;;;14.05;;
64235;SDS011;50564;47.402;9.740;2024-01-30T15:53:21;21.42;;;13.60;;
64235;SDS011;50564;47.402;9.740;2024-01-30T15:58:22;20.40;;;13.65;;
64235;SDS011;50564;47.402;9.740;2024-01-30T16:03:22;21.02;;;14.93;;
64235;SDS011;50564;47.402;9.740;2024-01-30T16:08:23;18.27;;;13.23;;
64235;SDS011;50564;47.402;9.740;2024-01-30T16:13:24;19.20;;;13.85;;
64235;SDS011;50564;47.402;9.740;2024-01-30T16:18:24;21.90;;;16.15;;
64235;SDS011;50564;47.402;9.740;2024-01-30T16:23:26;22.08;;;16.52;;
64235;SDS011;50564;47.402;9.740;2024-01-30T16:28:27;21.55;;;15.65;;
64235;SDS011;50564;47.402;9.740;2024-01-30T16:33:28;25.13;;;17.48;;
64235;SDS011;50564;47.402;9.740;2024-01-30T16:38:30;32.83;;;21.83;;
64235;SDS011;50564;47.402;9.740;2024-01-30T16:43:30;38.95;;;25.67;;
64235;SDS011;50564;47.402;9.740;2024-01-30T16:48:31;32.65;;;22.92;;
64235;SDS011;50564;47.402;9.740;2024-01-30T16:53:32;34.22;;;23.90;;
64235;SDS011;50564;47.402;9.740;2024-01-30T16:58:32;30.38;;;22.17;;
64235;SDS011;50564;47.402;9.740;2024-01-30T17:03:33;34.40;;;25.60;;
64235;SDS011;50564;47.402;9.740;2024-01-30T17:08:33;31.88;;;23.15;;
64235;SDS011;50564;47.402;9.740;2024-01-30T17:13:35;23.70;;;17.95;;
64235;SDS011;50564;47.402;9.740;2024-01-30T17:18:36;18.67;;;13.50;;
64235;SDS011;50564;47.402;9.740;2024-01-30T17:23:37;17.25;;;13.63;;
64235;SDS011;50564;47.402;9.740;2024-01-30T17:28:39;16.83;;;11.38;;
64235;SDS011;50564;47.402;9.740;2024-01-30T17:33:40;15.10;;;10.30;;
64235;SDS011;50564;47.402;9.740;2024-01-30T17:38:41;15.82;;;11.07;;
64235;SDS011;50564;47.402;9.740;2024-01-30T17:43:42;13.73;;;9.73;;
64235;SDS011;50564;47.402;9.740;2024-01-30T17:48:43;15.82;;;11.82;;
64235;SDS011;50564;47.402;9.740;2024-01-30T17:53:44;23.10;;;16.25;;
64235;SDS011;50564;47.402;9.740;2024-01-30T17:58:44;26.92;;;20.35;;
64235;SDS011;50564;47.402;9.740;2024-01-30T18:03:45;33.78;;;23.38;;
64235;SDS011;50564;47.402;9.740;2024-01-30T18:08:45;36.78;;;26.95;;
64235;SDS011;50564;47.402;9.740;2024-01-30T18:13:46;36.55;;;24.13;;
64235;SDS011;50564;47.402;9.740;2024-01-30T18:18:47;27.55;;;18.33;;
64235;SDS011;50564;47.402;9.740;2024-01-30T18:23:47;19.88;;;14.07;;
64235;SDS011;50564;47.402;9.740;2024-01-30T18:28:48;23.20;;;12.75;;
64235;SDS011;50564;47.402;9.740;2024-01-30T18:33:49;19.55;;;12.88;;
64235;SDS011;50564;47.402;9.740;2024-01-30T18:38:51;27.38;;;17.98;;
64235;SDS011;50564;47.402;9.740;2024-01-30T18:43:53;40.42;;;27.35;;
64235;SDS011;50564;47.402;9.740;2024-01-30T18:48:55;44.15;;;28.70;;
64235;SDS011;50564;47.402;9.740;2024-01-30T18:53:56;35.22;;;23.00;;
64235;SDS011;50564;47.402;9.740;2024-01-30T18:58:58;31.27;;;20.13;;
64235;SDS011;50564;47.402;9.740;2024-01-30T19:04:00;31.50;;;19.88;;
64235;SDS011;50564;47.402;9.740;2024-01-30T19:09:05;31.88;;;19.58;;
64235;SDS011;50564;47.402;9.740;2024-01-30T19:14:09;39.85;;;27.58;;
64235;SDS011;50564;47.402;9.740;2024-01-30T19:19:11;47.95;;;32.83;;
64235;SDS011;50564;47.402;9.740;2024-01-30T19:24:13;250.88;;;97.13;;
64235;SDS011;50564;47.402;9.740;2024-01-30T19:29:14;181.48;;;80.22;;
64235;SDS011;50564;47.402;9.740;2024-01-30T19:34:16;85.95;;;42.83;;
64235;SDS011;50564;47.402;9.740;2024-01-30T19:39:18;27.40;;;16.95;;
64235;SDS011;50564;47.402;9.740;2024-01-30T19:44:20;25.67;;;12.68;;
64235;SDS011;50564;47.402;9.740;2024-01-30T19:49:21;29.27;;;18.02;;
64235;SDS011;50564;47.402;9.740;2024-01-30T19:54:23;34.53;;;24.08;;
64235;SDS011;50564;47.402;9.740;2024-01-30T19:59:31;29.83;;;20.40;;
64235;SDS011;50564;47.402;9.740;2024-01-30T20:04:48;29.67;;;20.52;;
64235;SDS011;50564;47.402;9.740;2024-01-30T20:10:04;33.50;;;21.65;;
64235;SDS011;50564;47.402;9.740;2024-01-30T20:15:06;31.00;;;20.70;;
64235;SDS011;50564;47.402;9.740;2024-01-30T20:20:09;31.33;;;20.92;;
64235;SDS011;50564;47.402;9.740;2024-01-30T20:25:11;29.92;;;19.63;;
64235;SDS011;50564;47.402;9.740;2024-01-30T20:30:13;41.67;;;29.77;;
64235;SDS011;50564;47.402;9.740;2024-01-30T20:35:14;46.65;;;29.95;;
64235;SDS011;50564;47.402;9.740;2024-01-30T20:40:15;54.03;;;34.42;;
64235;SDS011;50564;47.402;9.740;2024-01-30T20:45:19;43.20;;;27.17;;
64235;SDS011;50564;47.402;9.740;2024-01-30T20:50:21;33.92;;;22.83;;
64235;SDS011;50564;47.402;9.740;2024-01-30T20:55:23;30.58;;;21.98;;
64235;SDS011;50564;47.402;9.740;2024-01-30T21:00:24;69.75;;;43.45;;
64235;SDS011;50564;47.402;9.740;2024-01-30T21:05:26;40.55;;;27.92;;
64235;SDS011;50564;47.402;9.740;2024-01-30T21:10:27;44.25;;;30.70;;
64235;SDS011;50564;47.402;9.740;2024-01-30T21:15:28;43.63;;;30.52;;
64235;SDS011;50564;47.402;9.740;2024-01-30T21:20:29;38.92;;;28.48;;
64235;SDS011;50564;47.402;9.740;2024-01-30T21:25:29;55.45;;;34.42;;
64235;SDS011;50564;47.402;9.740;2024-01-30T21:30:30;40.67;;;25.70;;
64235;SDS011;50564;47.402;9.740;2024-01-30T21:35:31;34.92;;;22.45;;
64235;SDS011;50564;47.402;9.740;2024-01-30T21:40:31;35.00;;;22.25;;
64235;SDS011;50564;47.402;9.740;2024-01-30T21:45:32;23.98;;;16.70;;
64235;SDS011;50564;47.402;9.740;2024-01-30T21:50:33;21.67;;;15.20;;
64235;SDS011;50564;47.402;9.740;2024-01-30T21:55:33;29.17;;;17.90;;
64235;SDS011;50564;47.402;9.740;2024-01-30T22:00:35;21.33;;;15.02;;
64235;SDS011;50564;47.402;9.740;2024-01-30T22:05:36;17.15;;;11.88;;
64235;SDS011;50564;47.402;9.740;2024-01-30T22:10:37;8.18;;;4.97;;
64235;SDS011;50564;47.402;9.740;2024-01-30T22:15:38;5.88;;;3.40;;
64235;SDS011;50564;47.402;9.740;2024-01-30T22:20:40;5.90;;;2.10;;
64235;SDS011;50564;47.402;9.740;2024-01-30T22:25:41;3.78;;;1.90;;
64235;SDS011;50564;47.402;9.740;2024-01-30T22:30:41;8.40;;;4.75;;
64235;SDS011;50564;47.402;9.740;2024-01-30T22:35:42;18.67;;;12.60;;
64235;SDS011;50564;47.402;9.740;2024-01-30T22:40:43;21.75;;;14.23;;
64235;SDS011;50564;47.402;9.740;2024-01-30T22:45:43;19.65;;;13.20;;
64235;SDS011;50564;47.402;9.740;2024-01-30T22:50:44;21.30;;;12.75;;
64235;SDS011;50564;47.402;9.740;2024-01-30T22:55:45;22.35;;;12.75;;
64235;SDS011;50564;47.402;9.740;2024-01-30T23:00:45;20.95;;;12.15;;
64235;SDS011;50564;47.402;9.740;2024-01-30T23:05:46;15.90;;;9.95;;
64235;SDS011;50564;47.402;9.740;2024-01-30T23:10:47;11.60;;;7.25;;
64235;SDS011;50564;47.402;9.740;2024-01-30T23:15:47;6.13;;;3.25;;
64235;SDS011;50564;47.402;9.740;2024-01-30T23:20:48;7.43;;;4.07;;
64235;SDS011;50564;47.402;9.740;2024-01-30T23:25:48;6.78;;;3.50;;
64235;SDS011;50564;47.402;9.740;2024-01-30T23:30:49;4.63;;;2.50;;
64235;SDS011;50564;47.402;9.740;2024-01-30T23:35:50;7.60;;;5.15;;
64235;SDS011;50564;47.402;9.740;2024-01-30T23:40:51;7.47;;;4.57;;
64235;SDS011;50564;47.402;9.740;2024-01-30T23:45:52;10.25;;;5.82;;
64235;SDS011;50564;47.402;9.740;2024-01-30T23:50:52;6.13;;;3.90;;
64235;SDS011;50564;47.402;9.740;2024-01-30T23:55:53;4.97;;;2.70;;
